< Typhoon 201009 2010 Season Typhoon 201011 >
Typhoon 201010 (MERANTI)
General InformationTrack Information on Google MapsDetailed Wind InformationAccess Analytics MapList of All Images || NewsDisaster Info.WeblogTrackbackTyphoon FrontTwiphoonTyphoon Now!Typhoon ImaginationResourceGoogle EarthGE AnimationAtom FeedGeoJSON
Detalied Best Track (Time Zone = UTC)
Year Month Day Hour Lat. Long. Pressure (hPa) Wind (kt) Class Image Chart
2010 9 7 00 22.5 123.8 1004 0 2 Image Chart
2010 9 7 06 22.4 123.2 1004 0 2 Image Chart
2010 9 7 12 21.9 122.3 1004 0 2 Image Chart
2010 9 7 18 21.4 121.4 1004 0 2 Image Chart
2010 9 8 00 20.7 120.7 1004 0 2 Image Chart
2010 9 8 06 20.3 119.9 1002 0 2 Image Chart
2010 9 8 12 20.5 119.7 1002 0 2 Image Chart
2010 9 8 18 20.8 119.6 998 35 3 Image Chart
2010 9 9 00 21.3 119.4 994 40 3 Image Chart
2010 9 9 06 22.3 119.1 992 45 3 Image Chart
2010 9 9 12 23.1 118.9 990 50 4 Image Chart
2010 9 9 18 24.3 118.8 985 55 4 Image Chart
2010 9 10 00 25.3 118.8 996 40 3 Image Chart
2010 9 10 06 26.9 118.6 1000 35 3 Image Chart
2010 9 10 12 28.0 119.0 1004 0 2 Image Chart
2010 9 10 18 29.1 119.6 1006 0 2 Image Chart
2010 9 11 00 30.6 121.1 1006 0 2 Image Chart
2010 9 11 06 31.9 122.5 1006 0 2 Image Chart
2010 9 11 12 33.0 124.2 1006 0 2 Image Chart
2010 9 11 18 34.7 125.5 1004 0 2 Image Chart
2010 9 12 00 36.3 129.5 1004 0 6 Image Chart
2010 9 12 06 37.6 132.5 1002 0 6 Image Chart
2010 9 12 12 38.2 135.7 1002 0 6 Image Chart
2010 9 12 18 39.0 138.0 1002 0 6 Image Chart
2010 9 13 00 38.9 142.7 1004 0 6 Image Chart
2010 9 13 06 38.9 144.4 1002 0 6 Image Chart
2010 9 13 12 38.8 146.4 1002 0 6 Image Chart
2010 9 13 18 38.9 147.7 1002 0 6 Image Chart
2010 9 14 00 38.4 148.7 1004 0 6 Image Chart
2010 9 14 06 37.8 150.0 1004 0 6 Image Chart
Japan Meteorological Agency Best Track Data | Correction Date : 2010-11-11
< Typhoon 201009 2010 Season Typhoon 201011 >

Help